createdAt,value
2023-05-14T00:01:04.671Z,4.28
2023-05-14T00:03:31.675Z,4.40
2023-05-14T00:05:58.453Z,5.07
2023-05-14T00:08:25.029Z,4.93
2023-05-14T00:10:52.056Z,4.85
2023-05-14T00:13:20.000Z,5.15
2023-05-14T00:15:46.601Z,5.13
2023-05-14T00:18:13.250Z,4.60
2023-05-14T00:20:40.521Z,4.87
2023-05-14T00:23:07.162Z,5.10
2023-05-14T00:25:33.940Z,5.00
2023-05-14T00:28:00.566Z,4.95
2023-05-14T00:30:28.733Z,4.50
2023-05-14T00:32:55.409Z,4.63
2023-05-14T00:35:22.118Z,4.57
2023-05-14T00:37:48.875Z,4.63
2023-05-14T00:40:15.624Z,5.50
2023-05-14T00:42:42.441Z,4.93
2023-05-14T00:45:09.805Z,4.50
2023-05-14T00:47:38.065Z,4.90
2023-05-14T00:50:05.906Z,4.75
2023-05-14T00:52:33.185Z,4.88
2023-05-14T00:55:03.149Z,4.90
2023-05-14T00:57:29.833Z,4.40
2023-05-14T00:59:56.541Z,4.57
2023-05-14T01:02:23.273Z,4.68
2023-05-14T01:04:52.075Z,4.20
2023-05-14T01:07:29.477Z,4.32
2023-05-14T01:10:00.850Z,4.33
2023-05-14T01:12:33.982Z,4.18
2023-05-14T01:15:04.850Z,4.40
2023-05-14T01:17:33.421Z,4.60
2023-05-14T01:20:02.229Z,4.50
2023-05-14T01:22:30.114Z,4.63
2023-05-14T01:24:56.673Z,4.57
2023-05-14T01:27:31.276Z,4.43
2023-05-14T01:30:07.747Z,4.90
2023-05-14T01:32:35.365Z,4.30
2023-05-14T01:35:02.577Z,4.43
2023-05-14T01:37:32.072Z,4.82
2023-05-14T01:39:59.957Z,4.72
2023-05-14T01:42:28.197Z,4.65
2023-05-14T01:44:55.026Z,5.10
2023-05-14T01:47:21.575Z,5.00
2023-05-14T01:49:48.300Z,6.13
2023-05-14T01:52:14.876Z,4.88
2023-05-14T01:54:42.837Z,5.30
2023-05-14T01:57:09.408Z,5.18
2023-05-14T01:59:36.342Z,5.10
2023-05-14T02:02:02.954Z,5.22
2023-05-14T02:04:29.563Z,4.88
2023-05-14T02:06:56.372Z,4.50
2023-05-14T02:09:22.945Z,4.28
2023-05-14T02:11:51.176Z,5.20
2023-05-14T02:14:17.704Z,5.45
2023-05-14T02:16:44.252Z,4.90
2023-05-14T02:19:10.973Z,4.82
2023-05-14T02:21:37.533Z,5.18
2023-05-14T02:24:04.137Z,5.50
2023-05-14T02:26:30.744Z,5.28
2023-05-14T02:28:58.666Z,5.07
2023-05-14T02:31:25.637Z,5.15
2023-05-14T02:33:52.296Z,4.82
2023-05-14T02:36:19.018Z,4.70
2023-05-14T02:38:45.615Z,5.22
2023-05-14T02:41:12.170Z,5.13
2023-05-14T02:43:38.728Z,4.90
2023-05-14T02:46:06.648Z,4.88
2023-05-14T02:48:33.283Z,5.20
2023-05-14T02:51:00.147Z,4.82
2023-05-14T02:53:26.646Z,5.20
2023-05-14T02:55:53.465Z,4.82
2023-05-14T02:58:20.029Z,5.07
2023-05-14T03:00:52.832Z,4.83
2023-05-14T03:03:21.429Z,4.32
2023-05-14T03:05:48.745Z,5.00
2023-05-14T03:08:15.510Z,4.85
2023-05-14T03:10:42.107Z,5.25
2023-05-14T03:13:08.771Z,5.70
2023-05-14T03:15:35.571Z,5.40
2023-05-14T03:18:02.293Z,5.43
2023-05-14T03:20:30.315Z,5.90
2023-05-14T03:22:56.907Z,5.35
2023-05-14T03:25:23.717Z,5.93
2023-05-14T03:27:50.290Z,6.35
2023-05-14T03:30:17.019Z,5.50
2023-05-14T03:32:43.863Z,6.10
2023-05-14T03:35:10.761Z,5.28
2023-05-14T03:37:38.701Z,6.30
2023-05-14T03:40:06.884Z,5.82
2023-05-14T03:42:33.498Z,6.60
2023-05-14T03:45:00.027Z,6.22
2023-05-14T03:47:26.739Z,6.00
2023-05-14T03:49:53.324Z,6.23
2023-05-14T03:52:19.925Z,6.10
2023-05-14T03:54:47.898Z,6.53
2023-05-14T03:57:14.632Z,6.30
2023-05-14T03:59:41.199Z,6.32
2023-05-14T04:02:07.835Z,5.90
2023-05-14T04:04:34.434Z,6.03
2023-05-14T04:07:01.489Z,6.38
2023-05-14T04:09:28.084Z,6.47
2023-05-14T04:11:56.223Z,6.30
2023-05-14T04:14:22.858Z,6.37
2023-05-14T04:16:49.432Z,6.40
2023-05-14T04:19:16.358Z,6.45
2023-05-14T04:21:43.174Z,6.43
2023-05-14T04:24:09.825Z,5.93
2023-05-14T04:26:36.392Z,5.93
2023-05-14T04:29:04.509Z,5.80
2023-05-14T04:31:31.060Z,5.90
2023-05-14T04:33:57.623Z,6.20
2023-05-14T04:36:24.236Z,5.93
2023-05-14T04:38:50.823Z,6.03
2023-05-14T04:41:17.390Z,6.20
2023-05-14T04:43:43.989Z,5.50
2023-05-14T04:46:11.955Z,5.60
2023-05-14T04:48:38.838Z,6.05
2023-05-14T04:51:07.091Z,5.73
2023-05-14T04:53:33.957Z,5.32
2023-05-14T04:56:00.517Z,5.03
2023-05-14T04:58:27.294Z,5.30
2023-05-14T05:00:53.904Z,4.95
2023-05-14T05:03:22.020Z,5.73
2023-05-14T05:05:48.682Z,4.80
2023-05-14T05:08:15.265Z,4.75
2023-05-14T05:10:41.820Z,5.07
2023-05-14T05:13:08.390Z,5.00
2023-05-14T05:15:35.002Z,4.57
2023-05-14T05:18:01.773Z,5.13
2023-05-14T05:20:29.974Z,5.45
2023-05-14T05:22:56.763Z,5.40
2023-05-14T05:25:23.387Z,5.10
2023-05-14T05:27:49.940Z,5.57
2023-05-14T05:30:16.837Z,5.80
2023-05-14T05:32:43.661Z,6.13
2023-05-14T05:35:10.274Z,5.82
2023-05-14T05:37:38.689Z,5.57
2023-05-14T05:40:06.625Z,5.60
2023-05-14T05:42:33.403Z,5.22
2023-05-14T05:44:59.982Z,6.32
2023-05-14T05:47:26.979Z,5.97
2023-05-14T05:49:53.619Z,5.45
2023-05-14T05:52:20.258Z,5.17
2023-05-14T05:54:48.173Z,5.20
2023-05-14T05:57:15.084Z,5.85
2023-05-14T05:59:41.724Z,5.57
2023-05-14T06:02:08.735Z,5.00
2023-05-14T06:04:35.361Z,4.93
2023-05-14T06:07:01.957Z,5.10
2023-05-14T06:09:28.729Z,4.70
2023-05-14T06:11:56.639Z,5.40
2023-05-14T06:14:23.320Z,4.43
2023-05-14T06:16:49.964Z,5.37
2023-05-14T06:19:16.562Z,5.03
2023-05-14T06:21:43.260Z,5.47
2023-05-14T06:24:10.332Z,5.43
2023-05-14T06:26:36.887Z,5.15
2023-05-14T06:29:04.979Z,5.03
2023-05-14T06:31:31.540Z,4.78
2023-05-14T06:33:58.276Z,5.00
2023-05-14T06:36:24.872Z,5.35
2023-05-14T06:38:51.527Z,5.35
2023-05-14T06:41:18.088Z,5.30
2023-05-14T06:43:44.700Z,5.00
2023-05-14T06:46:12.633Z,4.47
2023-05-14T06:48:39.259Z,4.75
2023-05-14T06:51:05.989Z,4.68
2023-05-14T06:53:32.601Z,4.50
2023-05-14T06:55:59.359Z,4.40
2023-05-14T06:58:25.962Z,4.18
2023-05-14T07:00:52.541Z,4.40
2023-05-14T07:03:20.452Z,3.92
2023-05-14T07:05:47.030Z,4.03
2023-05-14T07:08:13.838Z,3.95
2023-05-14T07:10:40.393Z,3.88
2023-05-14T07:13:07.887Z,4.45
2023-05-14T07:15:34.793Z,4.15
2023-05-14T07:18:01.583Z,4.40
2023-05-14T07:20:29.781Z,4.50
2023-05-14T07:22:56.362Z,4.95
2023-05-14T07:25:23.003Z,4.80
2023-05-14T07:27:49.598Z,4.85
2023-05-14T07:30:16.199Z,4.30
2023-05-14T07:32:43.411Z,4.50
2023-05-14T07:35:10.294Z,4.15
2023-05-14T07:37:38.503Z,4.65
2023-05-14T07:40:06.226Z,4.15
2023-05-14T07:42:36.664Z,4.80
2023-05-14T07:45:04.568Z,4.55
2023-05-14T07:47:31.734Z,4.68
2023-05-14T07:49:59.047Z,4.60
2023-05-14T07:52:25.617Z,4.10
2023-05-14T07:54:53.691Z,4.87
2023-05-14T07:57:20.297Z,4.43
2023-05-14T07:59:47.869Z,4.60
2023-05-14T08:02:14.895Z,4.45
2023-05-14T08:04:41.731Z,4.07
2023-05-14T08:07:08.807Z,3.63
2023-05-14T08:09:35.745Z,4.97
2023-05-14T08:12:04.385Z,4.72
2023-05-14T08:14:31.105Z,4.60
2023-05-14T08:16:57.824Z,4.57
2023-05-14T08:19:24.451Z,4.80
2023-05-14T08:21:51.176Z,4.95
2023-05-14T08:24:19.004Z,5.55
2023-05-14T08:26:45.585Z,5.50
2023-05-14T08:29:16.304Z,5.10
2023-05-14T08:31:43.714Z,5.70
2023-05-14T08:34:10.364Z,5.50
2023-05-14T08:36:37.840Z,5.18
2023-05-14T08:39:04.393Z,4.90
2023-05-14T08:41:31.677Z,5.28
2023-05-14T08:44:06.734Z,5.83
2023-05-14T08:46:36.991Z,5.22
2023-05-14T08:49:10.793Z,4.75
2023-05-14T08:51:38.183Z,4.70
2023-05-14T08:54:05.801Z,4.60
2023-05-14T08:56:33.316Z,4.60
2023-05-14T08:58:59.877Z,3.90
2023-05-14T09:01:27.390Z,4.20
2023-05-14T09:03:56.496Z,3.72
2023-05-14T09:06:25.461Z,3.67
2023-05-14T09:08:53.336Z,3.93
2023-05-14T09:11:19.931Z,4.20
2023-05-14T09:13:46.496Z,4.07
2023-05-14T09:16:13.548Z,4.00
2023-05-14T09:18:43.586Z,3.38
2023-05-14T09:21:13.650Z,2.50
2023-05-14T09:23:42.984Z,2.60
2023-05-14T09:26:09.650Z,2.67
2023-05-14T09:28:40.191Z,3.35
2023-05-14T09:31:06.870Z,2.80
2023-05-14T09:33:33.507Z,2.17
2023-05-14T09:36:00.708Z,2.30
2023-05-14T09:38:32.792Z,2.30
2023-05-14T09:41:00.284Z,2.20
2023-05-14T09:43:26.863Z,2.50
2023-05-14T09:45:54.167Z,2.23
2023-05-14T09:48:20.850Z,2.42
2023-05-14T09:50:47.496Z,2.72
2023-05-14T09:53:14.240Z,2.58
2023-05-14T09:55:42.267Z,2.40
2023-05-14T09:58:09.019Z,2.43
2023-05-14T10:00:35.701Z,2.33
2023-05-14T10:03:05.669Z,2.63
2023-05-14T10:05:35.015Z,2.05
2023-05-14T10:08:04.620Z,2.42
2023-05-14T10:10:32.505Z,2.37
2023-05-14T10:13:03.950Z,2.15
2023-05-14T10:15:36.905Z,2.53
2023-05-14T10:18:09.585Z,2.33
2023-05-14T10:20:37.713Z,2.10
2023-05-14T10:23:04.773Z,2.40
2023-05-14T10:25:31.965Z,2.78
2023-05-14T10:28:00.267Z,2.80
2023-05-14T10:30:27.211Z,2.78
2023-05-14T10:33:11.567Z,2.97
2023-05-14T10:36:00.899Z,2.40
2023-05-14T10:38:28.642Z,2.83
2023-05-14T10:40:57.465Z,2.40
2023-05-14T10:43:27.656Z,2.20
2023-05-14T10:45:54.393Z,2.63
2023-05-14T10:48:21.011Z,2.27
2023-05-14T10:50:48.264Z,2.00
2023-05-14T10:53:15.272Z,2.53
2023-05-14T10:55:43.261Z,2.92
2023-05-14T10:58:10.673Z,2.05
2023-05-14T11:00:39.551Z,2.43
2023-05-14T11:03:07.051Z,2.00
2023-05-14T11:05:34.343Z,2.20
2023-05-14T11:08:04.366Z,2.40
2023-05-14T11:10:32.430Z,2.10
2023-05-14T11:12:59.449Z,2.70
2023-05-14T11:15:28.832Z,2.28
2023-05-14T11:17:58.109Z,2.00
2023-05-14T11:20:25.050Z,2.58
2023-05-14T11:22:52.034Z,2.35
2023-05-14T11:25:18.582Z,2.10
2023-05-14T11:27:46.228Z,2.30
2023-05-14T11:30:14.804Z,2.13
2023-05-14T11:32:43.467Z,2.33
2023-05-14T11:35:11.927Z,2.53
2023-05-14T11:37:38.922Z,2.30
2023-05-14T11:40:08.981Z,2.45
2023-05-14T11:42:36.930Z,2.07
2023-05-14T11:45:04.182Z,2.30
2023-05-14T11:47:30.974Z,2.30
2023-05-14T11:49:58.817Z,2.43
2023-05-14T11:52:26.800Z,2.45
2023-05-14T11:54:53.393Z,2.33
2023-05-14T11:57:20.946Z,2.38
2023-05-14T11:59:48.515Z,2.70
2023-05-14T12:02:17.394Z,2.40
2023-05-14T12:04:44.882Z,2.45
2023-05-14T12:07:12.832Z,2.08
2023-05-14T12:09:45.089Z,2.28
2023-05-14T12:12:12.888Z,2.00
2023-05-14T12:14:42.501Z,2.30
2023-05-14T12:17:13.930Z,2.10
2023-05-14T12:19:41.600Z,2.40
2023-05-14T12:22:08.420Z,2.30
2023-05-14T12:24:35.232Z,2.45
2023-05-14T12:27:03.640Z,2.57
2023-05-14T12:29:30.398Z,2.20
2023-05-14T12:31:57.956Z,2.22
2023-05-14T12:34:24.570Z,2.60
2023-05-14T12:36:51.185Z,2.10
2023-05-14T12:39:17.872Z,2.20
2023-05-14T12:41:44.654Z,2.10
2023-05-14T12:44:12.776Z,2.08
2023-05-14T12:46:39.497Z,2.22
2023-05-14T12:49:06.045Z,1.90
2023-05-14T12:51:32.705Z,2.60
2023-05-14T12:53:59.288Z,2.10
2023-05-14T12:56:26.015Z,2.17
2023-05-14T12:58:52.841Z,2.47
2023-05-14T13:01:20.937Z,2.10
2023-05-14T13:03:47.644Z,2.20
2023-05-14T13:06:14.306Z,2.20
2023-05-14T13:08:42.612Z,2.15
2023-05-14T13:11:09.322Z,2.28
2023-05-14T13:13:35.925Z,2.17
2023-05-14T13:16:03.387Z,2.40
2023-05-14T13:18:31.759Z,1.90
2023-05-14T13:20:58.434Z,2.10
2023-05-14T13:23:25.007Z,2.05
2023-05-14T13:25:51.941Z,2.10
2023-05-14T13:28:18.504Z,2.07
2023-05-14T13:31:03.987Z,2.28
2023-05-14T13:33:32.962Z,2.28
2023-05-14T13:36:00.055Z,2.10
2023-05-14T13:38:27.103Z,2.40
2023-05-14T13:40:54.151Z,2.07
2023-05-14T13:43:20.908Z,2.30
2023-05-14T13:45:47.470Z,2.30
2023-05-14T13:48:14.086Z,2.33
2023-05-14T13:50:42.096Z,2.15
2023-05-14T13:53:08.629Z,2.43
2023-05-14T13:55:35.654Z,2.10
2023-05-14T13:58:02.631Z,2.20
2023-05-14T14:00:29.311Z,2.28
2023-05-14T14:02:55.971Z,2.40
2023-05-14T14:05:23.323Z,2.43
2023-05-14T14:07:54.770Z,2.10
2023-05-14T14:10:28.158Z,2.22
2023-05-14T14:12:57.745Z,2.47
2023-05-14T14:15:24.531Z,2.05
2023-05-14T14:17:51.368Z,2.47
2023-05-14T14:20:18.159Z,2.17
2023-05-14T14:22:44.718Z,2.20
2023-05-14T14:25:12.702Z,2.30
2023-05-14T14:27:39.475Z,2.30
2023-05-14T14:30:08.105Z,2.27
2023-05-14T14:32:34.884Z,2.40
2023-05-14T14:35:01.566Z,2.28
2023-05-14T14:37:28.271Z,2.35
2023-05-14T14:39:54.866Z,2.30
2023-05-14T14:42:23.403Z,2.30
2023-05-14T14:44:50.556Z,2.38
2023-05-14T14:47:17.190Z,2.10
2023-05-14T14:49:43.762Z,2.17
2023-05-14T14:52:10.541Z,2.30
2023-05-14T14:54:37.600Z,2.20
2023-05-14T14:57:05.081Z,2.08
2023-05-14T14:59:35.008Z,2.17
2023-05-14T15:02:01.969Z,2.15
2023-05-14T15:04:28.526Z,1.73
2023-05-14T15:06:55.103Z,2.47
2023-05-14T15:09:21.681Z,2.47
2023-05-14T15:11:48.290Z,2.15
2023-05-14T15:14:14.852Z,1.98
2023-05-14T15:16:42.951Z,2.10
2023-05-14T15:19:09.553Z,2.10
2023-05-14T15:21:36.219Z,2.05
2023-05-14T15:24:03.356Z,2.35
2023-05-14T15:26:30.017Z,2.20
2023-05-14T15:28:56.565Z,1.98
2023-05-14T15:31:23.374Z,2.27
2023-05-14T15:33:51.490Z,1.90
2023-05-14T15:36:18.071Z,1.90
2023-05-14T15:38:44.963Z,2.50
2023-05-14T15:41:11.562Z,2.00
2023-05-14T15:44:07.170Z,2.60
2023-05-14T15:46:33.867Z,2.20
2023-05-14T15:49:01.780Z,1.98
2023-05-14T15:51:28.861Z,2.13
2023-05-14T15:53:55.539Z,2.17
2023-05-14T15:56:22.955Z,2.10
2023-05-14T15:58:49.972Z,1.88
2023-05-14T16:01:16.785Z,1.60
2023-05-14T16:03:43.672Z,2.03
2023-05-14T16:06:11.826Z,1.90
2023-05-14T16:08:38.567Z,1.80
2023-05-14T16:11:05.906Z,1.75
2023-05-14T16:13:32.543Z,1.70
2023-05-14T16:15:59.826Z,2.05
2023-05-14T16:18:26.867Z,2.20
2023-05-14T16:20:53.665Z,1.93
2023-05-14T16:23:23.919Z,2.22
2023-05-14T16:25:50.638Z,2.17
2023-05-14T16:28:17.409Z,2.00
2023-05-14T16:30:44.024Z,1.73
2023-05-14T16:33:10.810Z,1.80
2023-05-14T16:35:37.565Z,1.95
2023-05-14T16:38:04.204Z,2.08
2023-05-14T16:40:32.238Z,1.75
2023-05-14T16:42:58.842Z,1.65
2023-05-14T16:45:25.912Z,1.87
2023-05-14T16:47:52.860Z,1.70
2023-05-14T16:50:19.748Z,1.80
2023-05-14T16:52:46.525Z,1.70
2023-05-14T16:55:13.322Z,1.80
2023-05-14T16:57:41.366Z,1.70
2023-05-14T17:00:09.523Z,2.00
2023-05-14T17:02:36.265Z,1.63
2023-05-14T17:05:03.231Z,1.88
2023-05-14T17:07:30.099Z,1.50
2023-05-14T17:09:57.122Z,1.87
2023-05-14T17:12:23.842Z,2.10
2023-05-14T17:14:51.893Z,1.80
2023-05-14T17:17:18.842Z,1.88
2023-05-14T17:19:45.495Z,2.20
2023-05-14T17:22:12.314Z,1.90
2023-05-14T17:24:38.961Z,1.85
2023-05-14T17:27:06.004Z,2.20
2023-05-14T17:29:32.683Z,1.88
2023-05-14T17:32:00.733Z,2.00
2023-05-14T17:34:27.619Z,1.93
2023-05-14T17:36:54.189Z,2.13
2023-05-14T17:39:20.846Z,1.90
2023-05-14T17:41:47.429Z,1.92
2023-05-14T17:44:14.028Z,1.63
2023-05-14T17:46:40.703Z,1.90
2023-05-14T17:49:08.667Z,1.92
2023-05-14T17:51:35.250Z,2.05
2023-05-14T17:54:02.314Z,2.10
2023-05-14T17:56:29.606Z,2.15
2023-05-14T17:58:56.141Z,2.10
2023-05-14T18:01:22.782Z,2.58
2023-05-14T18:03:49.706Z,2.50
2023-05-14T18:06:17.777Z,2.25
2023-05-14T18:08:44.361Z,2.63
2023-05-14T18:11:10.950Z,2.40
2023-05-14T18:13:37.625Z,1.98
2023-05-14T18:16:05.154Z,2.20
2023-05-14T18:18:32.019Z,2.47
2023-05-14T18:20:58.589Z,2.47
2023-05-14T18:23:26.840Z,2.57
2023-05-14T18:25:53.997Z,2.22
2023-05-14T18:28:20.650Z,2.53
2023-05-14T18:30:47.426Z,2.60
2023-05-14T18:33:14.118Z,2.20
2023-05-14T18:35:41.646Z,2.43
2023-05-14T18:38:08.219Z,2.58
2023-05-14T18:40:36.179Z,2.42
2023-05-14T18:43:02.770Z,2.47
2023-05-14T18:45:29.516Z,2.42
2023-05-14T18:47:56.366Z,2.50
2023-05-14T18:50:22.955Z,2.20
2023-05-14T18:52:49.564Z,2.30
2023-05-14T18:55:16.128Z,3.17
2023-05-14T18:57:45.127Z,2.70
2023-05-14T19:00:13.046Z,2.47
2023-05-14T19:02:39.684Z,2.65
2023-05-14T19:05:07.395Z,2.45
2023-05-14T19:07:33.992Z,2.50
2023-05-14T19:10:00.600Z,2.58
2023-05-14T19:12:27.174Z,2.50
2023-05-14T19:14:55.336Z,2.50
2023-05-14T19:17:21.963Z,2.72
2023-05-14T19:19:48.531Z,2.42
2023-05-14T19:22:15.031Z,2.97
2023-05-14T19:24:41.609Z,2.80
2023-05-14T19:27:08.682Z,2.65
2023-05-14T19:29:35.590Z,2.40
2023-05-14T19:32:03.786Z,2.83
2023-05-14T19:34:30.679Z,3.05
2023-05-14T19:36:57.289Z,2.50
2023-05-14T19:39:23.880Z,2.60
2023-05-14T19:41:50.459Z,2.50
2023-05-14T19:44:17.160Z,2.80
2023-05-14T19:46:43.754Z,2.40
2023-05-14T19:49:11.720Z,2.10
2023-05-14T19:51:38.338Z,1.80
2023-05-14T19:54:05.164Z,1.90
2023-05-14T19:56:31.749Z,2.00
2023-05-14T19:58:58.358Z,2.00
2023-05-14T20:01:25.033Z,1.90
2023-05-14T20:03:51.695Z,1.80
2023-05-14T20:06:19.806Z,1.80
2023-05-14T20:08:46.409Z,1.92
2023-05-14T20:11:13.068Z,1.92
2023-05-14T20:13:39.630Z,1.80
2023-05-14T20:16:06.455Z,1.60
2023-05-14T20:18:33.198Z,1.67
2023-05-14T20:20:59.856Z,1.70
2023-05-14T20:23:27.797Z,1.83
2023-05-14T20:25:54.363Z,1.70
2023-05-14T20:28:21.022Z,1.70
2023-05-14T20:30:47.708Z,1.80
2023-05-14T20:33:14.439Z,1.88
2023-05-14T20:35:41.105Z,1.80
2023-05-14T20:38:07.709Z,1.63
2023-05-14T20:40:35.644Z,1.70
2023-05-14T20:43:02.398Z,1.70
2023-05-14T20:45:29.001Z,1.75
2023-05-14T20:47:55.584Z,1.80
2023-05-14T20:50:22.831Z,1.87
2023-05-14T20:52:49.530Z,1.50
2023-05-14T20:55:16.331Z,1.70
2023-05-14T20:57:44.314Z,1.58
2023-05-14T21:00:12.114Z,1.60
2023-05-14T21:02:38.843Z,1.60
2023-05-14T21:05:06.589Z,1.85
2023-05-14T21:07:33.150Z,1.80
2023-05-14T21:09:59.757Z,2.08
2023-05-14T21:12:26.518Z,1.75
2023-05-14T21:14:54.407Z,1.87
2023-05-14T21:17:21.169Z,1.67
2023-05-14T21:19:47.588Z,1.75
2023-05-14T21:22:14.125Z,1.70
2023-05-14T21:24:41.020Z,1.90
2023-05-14T21:27:07.794Z,1.80
2023-05-14T21:29:34.343Z,1.70
2023-05-14T21:32:02.348Z,2.00
2023-05-14T21:34:29.860Z,1.90
2023-05-14T21:36:58.381Z,1.92
2023-05-14T21:39:25.186Z,2.13
2023-05-14T21:41:51.838Z,1.77
2023-05-14T21:44:18.402Z,1.70
2023-05-14T21:46:45.040Z,2.08
2023-05-14T21:49:12.976Z,1.90
2023-05-14T21:51:44.676Z,2.17
2023-05-14T21:54:11.175Z,1.90
2023-05-14T21:56:38.114Z,2.00
2023-05-14T21:59:04.911Z,2.10
2023-05-14T22:01:32.591Z,2.13
2023-05-14T22:04:00.471Z,2.53
2023-05-14T22:06:28.453Z,2.58
2023-05-14T22:08:55.050Z,2.03
2023-05-14T22:11:21.475Z,2.22
2023-05-14T22:13:48.046Z,2.28
2023-05-14T22:16:14.781Z,2.43
2023-05-14T22:18:41.382Z,2.10
2023-05-14T22:21:08.012Z,2.17
2023-05-14T22:23:36.049Z,2.20
2023-05-14T22:26:03.276Z,2.25
2023-05-14T22:28:29.872Z,2.30
2023-05-14T22:30:56.595Z,2.20
2023-05-14T22:33:23.280Z,2.60
2023-05-14T22:35:50.048Z,2.40
2023-05-14T22:38:16.621Z,2.60
2023-05-14T22:40:44.515Z,2.63
2023-05-14T22:43:11.216Z,2.92
2023-05-14T22:45:37.784Z,2.80
2023-05-14T22:48:04.619Z,2.75
2023-05-14T22:50:31.305Z,2.60
2023-05-14T22:52:57.899Z,3.00
2023-05-14T22:55:24.691Z,3.08
2023-05-14T22:57:52.671Z,2.83
2023-05-14T23:00:19.566Z,2.85
2023-05-14T23:02:46.143Z,2.92
2023-05-14T23:05:12.877Z,3.10
2023-05-14T23:07:39.577Z,2.95
2023-05-14T23:10:06.978Z,3.30
2023-05-14T23:12:33.626Z,3.50
2023-05-14T23:15:01.579Z,3.40
2023-05-14T23:17:28.217Z,3.80
2023-05-14T23:19:54.941Z,3.83
2023-05-14T23:22:21.539Z,3.63
2023-05-14T23:24:48.089Z,4.10
2023-05-14T23:27:14.763Z,3.75
2023-05-14T23:29:41.321Z,4.30
2023-05-14T23:32:09.580Z,4.30
2023-05-14T23:34:36.144Z,4.22
2023-05-14T23:37:02.698Z,4.15
2023-05-14T23:39:29.425Z,4.28
2023-05-14T23:41:55.994Z,4.50
2023-05-14T23:44:22.506Z,4.40
2023-05-14T23:46:49.159Z,4.60
2023-05-14T23:49:17.261Z,5.00
2023-05-14T23:51:44.033Z,4.90
2023-05-14T23:54:10.612Z,4.67
2023-05-14T23:56:37.239Z,4.70
2023-05-14T23:59:03.918Z,4.47
